sensor_id;sensor_type;location;lat;lon;timestamp;pressure;altitude;pressure_sealevel;temperature;humidity
46722;BME280;32455;43.430;23.136;2022-11-14T00:01:07;99302.00;;;3.80;100.00
46722;BME280;32455;43.430;23.136;2022-11-14T00:03:52;99284.09;;;3.82;100.00
46722;BME280;32455;43.430;23.136;2022-11-14T00:06:38;99294.03;;;3.98;100.00
46722;BME280;32455;43.430;23.136;2022-11-14T00:09:27;99304.75;;;3.88;100.00
46722;BME280;32455;43.430;23.136;2022-11-14T00:12:12;99295.03;;;3.97;100.00
46722;BME280;32455;43.430;23.136;2022-11-14T00:14:57;99283.28;;;3.82;100.00
46722;BME280;32455;43.430;23.136;2022-11-14T00:17:42;99287.06;;;3.61;100.00
46722;BME280;32455;43.430;23.136;2022-11-14T00:20:28;99282.75;;;3.60;100.00
46722;BME280;32455;43.430;23.136;2022-11-14T00:23:13;99295.94;;;3.70;100.00
46722;BME280;32455;43.430;23.136;2022-11-14T00:25:59;99288.88;;;3.61;100.00
46722;BME280;32455;43.430;23.136;2022-11-14T00:28:44;99290.72;;;3.78;100.00
46722;BME280;32455;43.430;23.136;2022-11-14T00:31:30;99284.84;;;3.74;100.00
46722;BME280;32455;43.430;23.136;2022-11-14T00:34:17;99268.66;;;3.68;100.00
46722;BME280;32455;43.430;23.136;2022-11-14T00:37:02;99282.03;;;3.76;100.00
46722;BME280;32455;43.430;23.136;2022-11-14T00:39:47;99271.50;;;3.66;100.00
46722;BME280;32455;43.430;23.136;2022-11-14T00:42:33;99280.28;;;3.85;100.00
46722;BME280;32455;43.430;23.136;2022-11-14T00:45:18;99272.69;;;3.72;100.00
46722;BME280;32455;43.430;23.136;2022-11-14T00:48:04;99291.09;;;3.65;100.00
46722;BME280;32455;43.430;23.136;2022-11-14T00:50:49;99269.97;;;3.64;100.00
46722;BME280;32455;43.430;23.136;2022-11-14T00:53:35;99268.28;;;3.45;100.00
46722;BME280;32455;43.430;23.136;2022-11-14T00:56:20;99270.94;;;3.45;100.00
46722;BME280;32455;43.430;23.136;2022-11-14T00:59:06;99286.50;;;3.40;100.00
46722;BME280;32455;43.430;23.136;2022-11-14T01:01:51;99261.88;;;3.38;100.00
46722;BME280;32455;43.430;23.136;2022-11-14T01:04:36;99261.31;;;3.44;100.00
46722;BME280;32455;43.430;23.136;2022-11-14T01:07:22;99261.88;;;3.38;100.00
46722;BME280;32455;43.430;23.136;2022-11-14T01:10:08;99275.50;;;3.35;100.00
46722;BME280;32455;43.430;23.136;2022-11-14T01:12:54;99270.38;;;3.23;100.00
46722;BME280;32455;43.430;23.136;2022-11-14T01:15:45;99258.19;;;3.31;100.00
46722;BME280;32455;43.430;23.136;2022-11-14T01:18:31;99255.53;;;3.31;100.00
46722;BME280;32455;43.430;23.136;2022-11-14T01:21:16;99238.78;;;3.20;100.00
46722;BME280;32455;43.430;23.136;2022-11-14T01:24:02;99260.50;;;3.34;100.00
46722;BME280;32455;43.430;23.136;2022-11-14T01:26:48;99254.00;;;3.46;100.00
46722;BME280;32455;43.430;23.136;2022-11-14T01:29:33;99236.47;;;3.35;100.00
46722;BME280;32455;43.430;23.136;2022-11-14T01:32:18;99259.03;;;3.49;100.00
46722;BME280;32455;43.430;23.136;2022-11-14T01:35:03;99238.38;;;3.43;100.00
46722;BME280;32455;43.430;23.136;2022-11-14T01:37:49;99242.16;;;3.40;100.00
46722;BME280;32455;43.430;23.136;2022-11-14T01:40:33;99231.47;;;3.50;100.00
46722;BME280;32455;43.430;23.136;2022-11-14T01:43:30;99230.00;;;3.38;100.00
46722;BME280;32455;43.430;23.136;2022-11-14T01:46:28;99233.44;;;3.30;100.00
46722;BME280;32455;43.430;23.136;2022-11-14T01:49:21;99226.66;;;3.18;100.00
46722;BME280;32455;43.430;23.136;2022-11-14T01:55:02;99229.19;;;3.37;100.00
46722;BME280;32455;43.430;23.136;2022-11-14T01:57:49;99223.56;;;3.40;100.00
46722;BME280;32455;43.430;23.136;2022-11-14T02:00:34;99214.91;;;3.38;100.00
46722;BME280;32455;43.430;23.136;2022-11-14T02:03:20;99222.19;;;3.18;100.00
46722;BME280;32455;43.430;23.136;2022-11-14T02:06:06;99223.97;;;3.00;100.00
46722;BME280;32455;43.430;23.136;2022-11-14T02:08:53;99219.97;;;2.86;100.00
46722;BME280;32455;43.430;23.136;2022-11-14T02:11:43;99229.47;;;2.89;100.00
46722;BME280;32455;43.430;23.136;2022-11-14T02:14:30;99218.88;;;2.89;100.00
46722;BME280;32455;43.430;23.136;2022-11-14T02:17:18;99214.28;;;3.09;100.00
46722;BME280;32455;43.430;23.136;2022-11-14T02:22:54;99220.31;;;2.83;100.00
46722;BME280;32455;43.430;23.136;2022-11-14T02:25:40;99216.56;;;2.76;100.00
46722;BME280;32455;43.430;23.136;2022-11-14T02:28:26;99222.03;;;2.74;100.00
46722;BME280;32455;43.430;23.136;2022-11-14T02:31:11;99199.31;;;2.53;100.00
46722;BME280;32455;43.430;23.136;2022-11-14T02:33:57;99227.44;;;2.73;100.00
46722;BME280;32455;43.430;23.136;2022-11-14T02:36:42;99229.59;;;2.97;100.00
46722;BME280;32455;43.430;23.136;2022-11-14T02:39:27;99199.34;;;2.80;100.00
46722;BME280;32455;43.430;23.136;2022-11-14T02:42:12;99221.41;;;2.81;100.00
46722;BME280;32455;43.430;23.136;2022-11-14T02:44:58;99219.53;;;2.91;100.00
46722;BME280;32455;43.430;23.136;2022-11-14T02:47:44;99218.47;;;2.84;100.00
46722;BME280;32455;43.430;23.136;2022-11-14T02:50:29;99223.19;;;2.90;100.00
46722;BME280;32455;43.430;23.136;2022-11-14T02:53:15;99208.00;;;2.82;100.00
46722;BME280;32455;43.430;23.136;2022-11-14T02:56:00;99214.50;;;2.70;100.00
46722;BME280;32455;43.430;23.136;2022-11-14T02:58:46;99214.25;;;2.63;100.00
46722;BME280;32455;43.430;23.136;2022-11-14T03:01:31;99219.81;;;2.60;100.00
46722;BME280;32455;43.430;23.136;2022-11-14T03:04:17;99221.53;;;2.61;100.00
46722;BME280;32455;43.430;23.136;2022-11-14T03:07:02;99219.16;;;2.58;100.00
46722;BME280;32455;43.430;23.136;2022-11-14T03:09:47;99223.47;;;2.59;100.00
46722;BME280;32455;43.430;23.136;2022-11-14T03:12:33;99212.81;;;2.69;100.00
46722;BME280;32455;43.430;23.136;2022-11-14T03:15:19;99216.06;;;2.63;100.00
46722;BME280;32455;43.430;23.136;2022-11-14T03:18:04;99222.47;;;2.60;100.00
46722;BME280;32455;43.430;23.136;2022-11-14T03:20:49;99228.09;;;2.57;100.00
46722;BME280;32455;43.430;23.136;2022-11-14T03:23:35;99208.59;;;2.48;100.00
46722;BME280;32455;43.430;23.136;2022-11-14T03:26:21;99207.44;;;2.51;100.00
46722;BME280;32455;43.430;23.136;2022-11-14T03:29:06;99220.47;;;2.44;100.00
46722;BME280;32455;43.430;23.136;2022-11-14T03:31:52;99215.44;;;2.41;100.00
46722;BME280;32455;43.430;23.136;2022-11-14T03:34:37;99227.16;;;2.48;100.00
46722;BME280;32455;43.430;23.136;2022-11-14T03:37:23;99207.91;;;2.37;100.00
46722;BME280;32455;43.430;23.136;2022-11-14T03:40:08;99224.63;;;2.47;100.00
46722;BME280;32455;43.430;23.136;2022-11-14T03:42:55;99225.63;;;2.46;100.00
46722;BME280;32455;43.430;23.136;2022-11-14T03:45:41;99221.41;;;2.43;100.00
46722;BME280;32455;43.430;23.136;2022-11-14T03:48:27;99235.00;;;2.40;100.00
46722;BME280;32455;43.430;23.136;2022-11-14T03:51:13;99219.53;;;2.36;100.00
46722;BME280;32455;43.430;23.136;2022-11-14T03:53:58;99218.13;;;2.32;100.00
46722;BME280;32455;43.430;23.136;2022-11-14T03:56:43;99215.91;;;2.27;100.00
46722;BME280;32455;43.430;23.136;2022-11-14T03:59:28;99219.41;;;2.28;100.00
46722;BME280;32455;43.430;23.136;2022-11-14T04:02:13;99240.69;;;2.45;100.00
46722;BME280;32455;43.430;23.136;2022-11-14T04:04:59;99221.41;;;2.43;100.00
46722;BME280;32455;43.430;23.136;2022-11-14T04:07:45;99231.25;;;2.33;100.00
46722;BME280;32455;43.430;23.136;2022-11-14T04:10:30;99236.38;;;2.35;100.00
46722;BME280;32455;43.430;23.136;2022-11-14T04:13:15;99211.00;;;2.32;100.00
46722;BME280;32455;43.430;23.136;2022-11-14T04:16:01;99214.78;;;2.30;100.00
46722;BME280;32455;43.430;23.136;2022-11-14T04:18:47;99213.66;;;2.32;100.00
46722;BME280;32455;43.430;23.136;2022-11-14T04:21:32;99208.03;;;2.35;100.00
46722;BME280;32455;43.430;23.136;2022-11-14T04:24:17;99207.09;;;2.26;100.00
46722;BME280;32455;43.430;23.136;2022-11-14T04:27:03;99212.78;;;2.41;100.00
46722;BME280;32455;43.430;23.136;2022-11-14T04:29:48;99200.91;;;2.45;100.00
46722;BME280;32455;43.430;23.136;2022-11-14T04:32:33;99199.66;;;2.40;100.00
46722;BME280;32455;43.430;23.136;2022-11-14T04:35:19;99195.72;;;2.44;100.00
46722;BME280;32455;43.430;23.136;2022-11-14T04:38:04;99216.13;;;2.43;100.00
46722;BME280;32455;43.430;23.136;2022-11-14T04:40:51;99204.56;;;2.35;100.00
46722;BME280;32455;43.430;23.136;2022-11-14T04:43:36;99219.66;;;2.34;100.00
46722;BME280;32455;43.430;23.136;2022-11-14T04:46:22;99199.69;;;2.30;100.00
46722;BME280;32455;43.430;23.136;2022-11-14T04:49:07;99214.31;;;2.44;100.00
46722;BME280;32455;43.430;23.136;2022-11-14T04:51:52;99226.28;;;2.48;100.00
46722;BME280;32455;43.430;23.136;2022-11-14T04:54:38;99225.22;;;2.41;100.00
46722;BME280;32455;43.430;23.136;2022-11-14T04:57:23;99224.34;;;2.50;100.00
46722;BME280;32455;43.430;23.136;2022-11-14T05:00:09;99212.91;;;2.40;100.00
46722;BME280;32455;43.430;23.136;2022-11-14T05:02:57;99232.34;;;2.40;100.00
46722;BME280;32455;43.430;23.136;2022-11-14T05:05:43;99210.03;;;2.33;100.00
46722;BME280;32455;43.430;23.136;2022-11-14T05:08:29;99208.97;;;2.54;100.00
46722;BME280;32455;43.430;23.136;2022-11-14T05:11:15;99206.59;;;2.50;100.00
46722;BME280;32455;43.430;23.136;2022-11-14T05:14:01;99229.66;;;2.50;100.00
46722;BME280;32455;43.430;23.136;2022-11-14T05:16:46;99230.31;;;2.52;100.00
46722;BME280;32455;43.430;23.136;2022-11-14T05:19:32;99214.28;;;2.54;100.00
46722;BME280;32455;43.430;23.136;2022-11-14T05:22:17;99225.63;;;2.46;100.00
46722;BME280;32455;43.430;23.136;2022-11-14T05:25:03;99225.50;;;2.38;100.00
46722;BME280;32455;43.430;23.136;2022-11-14T05:27:49;99227.84;;;2.50;100.00
46722;BME280;32455;43.430;23.136;2022-11-14T05:30:34;99216.09;;;2.53;100.00
46722;BME280;32455;43.430;23.136;2022-11-14T05:33:20;99226.50;;;2.64;100.00
46722;BME280;32455;43.430;23.136;2022-11-14T05:36:10;99210.75;;;2.63;100.00
46722;BME280;32455;43.430;23.136;2022-11-14T05:38:56;99212.19;;;2.57;100.00
46722;BME280;32455;43.430;23.136;2022-11-14T05:41:41;99222.47;;;2.70;100.00
46722;BME280;32455;43.430;23.136;2022-11-14T05:44:25;99226.72;;;2.81;100.00
46722;BME280;32455;43.430;23.136;2022-11-14T05:47:11;99227.44;;;2.73;100.00
46722;BME280;32455;43.430;23.136;2022-11-14T05:49:56;99228.72;;;2.79;100.00
46722;BME280;32455;43.430;23.136;2022-11-14T05:52:41;99225.13;;;2.70;100.00
46722;BME280;32455;43.430;23.136;2022-11-14T05:55:26;99227.72;;;2.80;100.00
46722;BME280;32455;43.430;23.136;2022-11-14T05:58:11;99204.56;;;2.72;100.00
46722;BME280;32455;43.430;23.136;2022-11-14T06:03:51;99227.47;;;3.00;100.00
46722;BME280;32455;43.430;23.136;2022-11-14T06:06:36;99230.13;;;3.00;100.00
46722;BME280;32455;43.430;23.136;2022-11-14T06:09:21;99224.94;;;2.99;100.00
46722;BME280;32455;43.430;23.136;2022-11-14T06:12:07;99231.81;;;3.19;100.00
46722;BME280;32455;43.430;23.136;2022-11-14T06:14:52;99226.16;;;3.32;100.00
46722;BME280;32455;43.430;23.136;2022-11-14T06:17:38;99223.56;;;3.22;100.00
46722;BME280;32455;43.430;23.136;2022-11-14T06:20:23;99208.00;;;3.28;100.00
46722;BME280;32455;43.430;23.136;2022-11-14T06:23:09;99208.47;;;3.41;100.00
46722;BME280;32455;43.430;23.136;2022-11-14T06:26:02;99228.66;;;3.69;100.00
46722;BME280;32455;43.430;23.136;2022-11-14T06:28:49;99212.47;;;3.63;100.00
46722;BME280;32455;43.430;23.136;2022-11-14T06:31:35;99228.66;;;3.69;100.00
46722;BME280;32455;43.430;23.136;2022-11-14T06:34:20;99197.06;;;3.66;100.00
46722;BME280;32455;43.430;23.136;2022-11-14T06:37:05;99224.00;;;3.89;100.00
46722;BME280;32455;43.430;23.136;2022-11-14T06:39:51;99214.72;;;3.93;100.00
46722;BME280;32455;43.430;23.136;2022-11-14T06:42:36;99206.03;;;4.09;100.00
46722;BME280;32455;43.430;23.136;2022-11-14T06:45:22;99209.28;;;4.47;100.00
46722;BME280;32455;43.430;23.136;2022-11-14T06:48:07;99207.44;;;4.82;100.00
46722;BME280;32455;43.430;23.136;2022-11-14T06:50:54;99215.16;;;4.93;100.00
46722;BME280;32455;43.430;23.136;2022-11-14T06:53:40;99214.72;;;5.30;100.00
46722;BME280;32455;43.430;23.136;2022-11-14T06:56:26;99202.44;;;5.45;100.00
46722;BME280;32455;43.430;23.136;2022-11-14T06:59:11;99200.97;;;5.59;100.00
46722;BME280;32455;43.430;23.136;2022-11-14T07:01:57;99214.13;;;5.85;100.00
46722;BME280;32455;43.430;23.136;2022-11-14T07:04:42;99213.84;;;5.96;100.00
46722;BME280;32455;43.430;23.136;2022-11-14T07:07:28;99206.81;;;6.20;100.00
46722;BME280;32455;43.430;23.136;2022-11-14T07:10:13;99201.63;;;6.35;100.00
46722;BME280;32455;43.430;23.136;2022-11-14T07:12:58;99191.06;;;6.49;100.00
46722;BME280;32455;43.430;23.136;2022-11-14T07:15:52;99195.28;;;6.83;100.00
46722;BME280;32455;43.430;23.136;2022-11-14T07:18:38;99203.88;;;7.01;100.00
46722;BME280;32455;43.430;23.136;2022-11-14T07:21:24;99198.16;;;7.13;100.00
46722;BME280;32455;43.430;23.136;2022-11-14T07:24:09;99196.22;;;7.30;100.00
46722;BME280;32455;43.430;23.136;2022-11-14T07:26:55;99201.63;;;7.44;100.00
46722;BME280;32455;43.430;23.136;2022-11-14T07:29:40;99183.56;;;7.46;100.00
46722;BME280;32455;43.430;23.136;2022-11-14T07:32:26;99184.00;;;7.58;100.00
46722;BME280;32455;43.430;23.136;2022-11-14T07:35:11;99195.81;;;7.87;100.00
46722;BME280;32455;43.430;23.136;2022-11-14T07:38:01;99204.19;;;8.21;100.00
46722;BME280;32455;43.430;23.136;2022-11-14T07:41:02;99204.22;;;8.36;100.00
46722;BME280;32455;43.430;23.136;2022-11-14T07:43:48;99201.53;;;8.36;100.00
46722;BME280;32455;43.430;23.136;2022-11-14T07:46:34;99203.75;;;8.33;100.00
46722;BME280;32455;43.430;23.136;2022-11-14T07:49:19;99195.25;;;8.14;100.00
46722;BME280;32455;43.430;23.136;2022-11-14T07:52:03;99189.41;;;8.11;100.00
46722;BME280;32455;43.430;23.136;2022-11-14T07:54:48;99198.06;;;8.13;100.00
46722;BME280;32455;43.430;23.136;2022-11-14T07:57:33;99201.31;;;8.08;100.00
46722;BME280;32455;43.430;23.136;2022-11-14T08:00:18;99199.28;;;8.10;100.00
46722;BME280;32455;43.430;23.136;2022-11-14T08:03:06;99214.19;;;8.27;100.00
46722;BME280;32455;43.430;23.136;2022-11-14T08:06:04;99198.34;;;8.03;100.00
46722;BME280;32455;43.430;23.136;2022-11-14T08:08:51;99200.38;;;7.78;100.00
46722;BME280;32455;43.430;23.136;2022-11-14T08:11:36;99193.91;;;7.72;100.00
46722;BME280;32455;43.430;23.136;2022-11-14T08:14:34;99208.41;;;8.01;100.00
46722;BME280;32455;43.430;23.136;2022-11-14T08:17:20;99207.88;;;8.06;100.00
46722;BME280;32455;43.430;23.136;2022-11-14T08:20:07;99214.41;;;8.18;100.00
46722;BME280;32455;43.430;23.136;2022-11-14T08:23:00;99182.09;;;8.04;100.00
46722;BME280;32455;43.430;23.136;2022-11-14T08:25:45;99212.69;;;8.25;100.00
46722;BME280;32455;43.430;23.136;2022-11-14T08:28:31;99210.59;;;8.35;100.00
46722;BME280;32455;43.430;23.136;2022-11-14T08:31:16;99198.41;;;8.33;100.00
46722;BME280;32455;43.430;23.136;2022-11-14T08:34:02;99214.34;;;8.49;100.00
46722;BME280;32455;43.430;23.136;2022-11-14T08:36:47;99210.91;;;8.40;100.00
46722;BME280;32455;43.430;23.136;2022-11-14T08:39:32;99218.03;;;8.48;100.00
46722;BME280;32455;43.430;23.136;2022-11-14T08:42:17;99219.41;;;8.59;100.00
46722;BME280;32455;43.430;23.136;2022-11-14T08:45:03;99226.44;;;8.74;100.00
46722;BME280;32455;43.430;23.136;2022-11-14T08:47:52;99220.34;;;8.81;100.00
46722;BME280;32455;43.430;23.136;2022-11-14T08:50:37;99239.53;;;8.99;100.00
46722;BME280;32455;43.430;23.136;2022-11-14T08:53:24;99227.81;;;9.00;100.00
46722;BME280;32455;43.430;23.136;2022-11-14T08:56:09;99230.22;;;8.95;100.00
46722;BME280;32455;43.430;23.136;2022-11-14T08:58:55;99227.25;;;9.05;100.00
46722;BME280;32455;43.430;23.136;2022-11-14T09:01:40;99228.25;;;9.03;100.00
46722;BME280;32455;43.430;23.136;2022-11-14T09:04:26;99233.53;;;9.12;100.00
46722;BME280;32455;43.430;23.136;2022-11-14T09:07:11;99224.47;;;9.13;100.00
46722;BME280;32455;43.430;23.136;2022-11-14T09:09:56;99214.75;;;9.12;100.00
46722;BME280;32455;43.430;23.136;2022-11-14T09:12:43;99225.38;;;9.20;100.00
46722;BME280;32455;43.430;23.136;2022-11-14T09:15:29;99233.66;;;9.40;100.00
46722;BME280;32455;43.430;23.136;2022-11-14T09:18:15;99229.94;;;9.41;100.00
46722;BME280;32455;43.430;23.136;2022-11-14T09:21:02;99222.28;;;9.38;100.00
46722;BME280;32455;43.430;23.136;2022-11-14T09:23:47;99226.53;;;9.47;100.00
46722;BME280;32455;43.430;23.136;2022-11-14T09:26:33;99203.25;;;9.33;100.00
46722;BME280;32455;43.430;23.136;2022-11-14T09:29:18;99218.13;;;9.35;100.00
46722;BME280;32455;43.430;23.136;2022-11-14T09:32:03;99221.91;;;9.41;100.00
46722;BME280;32455;43.430;23.136;2022-11-14T09:34:48;99220.63;;;9.37;100.00
46722;BME280;32455;43.430;23.136;2022-11-14T09:37:34;99227.38;;;9.33;100.00
46722;BME280;32455;43.430;23.136;2022-11-14T09:40:19;99221.09;;;9.40;100.00
46722;BME280;32455;43.430;23.136;2022-11-14T09:43:30;99214.66;;;9.56;100.00
46722;BME280;32455;43.430;23.136;2022-11-14T09:46:26;99217.91;;;9.51;100.00
46722;BME280;32455;43.430;23.136;2022-11-14T09:49:26;99224.25;;;9.29;100.00
46722;BME280;32455;43.430;23.136;2022-11-14T09:52:32;99223.19;;;8.94;100.00
46722;BME280;32455;43.430;23.136;2022-11-14T09:55:31;99217.38;;;8.90;100.00
46722;BME280;32455;43.430;23.136;2022-11-14T09:58:20;99218.84;;;8.93;100.00
46722;BME280;32455;43.430;23.136;2022-11-14T10:13:46;99208.03;;;8.42;100.00
46722;BME280;32455;43.430;23.136;2022-11-14T10:19:52;99196.97;;;8.22;100.00
46722;BME280;32455;43.430;23.136;2022-11-14T10:32:04;99198.53;;;8.01;100.00
46722;BME280;32455;43.430;23.136;2022-11-14T10:41:09;99194.94;;;8.09;100.00
46722;BME280;32455;43.430;23.136;2022-11-14T10:43:56;99185.50;;;7.98;100.00
46722;BME280;32455;43.430;23.136;2022-11-14T10:46:47;99189.56;;;8.09;100.00
46722;BME280;32455;43.430;23.136;2022-11-14T10:49:36;99189.34;;;7.96;100.00
46722;BME280;32455;43.430;23.136;2022-11-14T10:52:35;99183.63;;;7.61;100.00
46722;BME280;32455;43.430;23.136;2022-11-14T10:55:22;99187.84;;;7.78;100.00
46722;BME280;32455;43.430;23.136;2022-11-14T10:58:09;99181.66;;;7.78;100.00
46722;BME280;32455;43.430;23.136;2022-11-14T11:01:30;99189.22;;;7.74;100.00
46722;BME280;32455;43.430;23.136;2022-11-14T11:04:34;99181.41;;;7.88;100.00
46722;BME280;32455;43.430;23.136;2022-11-14T11:07:24;99181.91;;;7.68;100.00
46722;BME280;32455;43.430;23.136;2022-11-14T11:10:30;99178.06;;;7.71;100.00
46722;BME280;32455;43.430;23.136;2022-11-14T11:13:39;99167.09;;;7.81;100.00
46722;BME280;32455;43.430;23.136;2022-11-14T11:16:32;99178.69;;;7.73;100.00
46722;BME280;32455;43.430;23.136;2022-11-14T11:19:24;99169.00;;;7.72;100.00
46722;BME280;32455;43.430;23.136;2022-11-14T11:25:27;99158.66;;;7.69;100.00
46722;BME280;32455;43.430;23.136;2022-11-14T11:28:15;99138.53;;;7.58;100.00
46722;BME280;32455;43.430;23.136;2022-11-14T11:31:05;99139.81;;;7.62;100.00
46722;BME280;32455;43.430;23.136;2022-11-14T11:33:50;99153.00;;;7.41;100.00
46722;BME280;32455;43.430;23.136;2022-11-14T11:36:40;99150.16;;;7.65;100.00
46722;BME280;32455;43.430;23.136;2022-11-14T11:39:29;99156.88;;;7.61;100.00
46722;BME280;32455;43.430;23.136;2022-11-14T11:42:23;99149.81;;;7.68;100.00
46722;BME280;32455;43.430;23.136;2022-11-14T11:45:15;99155.16;;;7.68;100.00
46722;BME280;32455;43.430;23.136;2022-11-14T11:48:15;99151.81;;;7.66;100.00
46722;BME280;32455;43.430;23.136;2022-11-14T11:51:03;99154.03;;;7.63;100.00
46722;BME280;32455;43.430;23.136;2022-11-14T11:53:57;99132.47;;;7.41;100.00
46722;BME280;32455;43.430;23.136;2022-11-14T11:56:51;99147.31;;;7.44;100.00
46722;BME280;32455;43.430;23.136;2022-11-14T11:59:44;99138.75;;;7.48;100.00
46722;BME280;32455;43.430;23.136;2022-11-14T12:02:31;99144.19;;;7.63;100.00
46722;BME280;32455;43.430;23.136;2022-11-14T12:08:33;99132.34;;;7.35;100.00
46722;BME280;32455;43.430;23.136;2022-11-14T12:11:24;99134.63;;;7.46;100.00
46722;BME280;32455;43.430;23.136;2022-11-14T12:29:54;99139.03;;;7.53;100.00
46722;BME280;32455;43.430;23.136;2022-11-14T12:32:54;99123.59;;;7.41;100.00
46722;BME280;32455;43.430;23.136;2022-11-14T12:35:58;99108.97;;;7.37;100.00
46722;BME280;32455;43.430;23.136;2022-11-14T12:38:52;99126.19;;;7.34;100.00
46722;BME280;32455;43.430;23.136;2022-11-14T12:41:39;99119.88;;;7.27;100.00
46722;BME280;32455;43.430;23.136;2022-11-14T12:47:18;99120.06;;;7.25;100.00
46722;BME280;32455;43.430;23.136;2022-11-14T12:50:28;99131.16;;;7.14;100.00
46722;BME280;32455;43.430;23.136;2022-11-14T12:56:44;99121.72;;;7.03;100.00
46722;BME280;32455;43.430;23.136;2022-11-14T12:59:50;99136.16;;;7.17;100.00
46722;BME280;32455;43.430;23.136;2022-11-14T13:08:56;99118.16;;;7.34;100.00
46722;BME280;32455;43.430;23.136;2022-11-14T13:11:48;99103.59;;;7.14;100.00
46722;BME280;32455;43.430;23.136;2022-11-14T13:14:55;99137.31;;;7.15;100.00
46722;BME280;32455;43.430;23.136;2022-11-14T13:18:25;99119.88;;;7.04;100.00
46722;BME280;32455;43.430;23.136;2022-11-14T13:21:30;99117.28;;;6.88;100.00
46722;BME280;32455;43.430;23.136;2022-11-14T13:25:35;99121.81;;;7.10;100.00
46722;BME280;32455;43.430;23.136;2022-11-14T13:27:55;99101.50;;;7.01;100.00
46722;BME280;32455;43.430;23.136;2022-11-14T13:33:59;99109.41;;;7.17;100.00
46722;BME280;32455;43.430;23.136;2022-11-14T13:36:53;99118.44;;;7.16;100.00
46722;BME280;32455;43.430;23.136;2022-11-14T13:51:21;99109.72;;;6.99;100.00
46722;BME280;32455;43.430;23.136;2022-11-14T13:54:15;99112.16;;;7.09;100.00
46722;BME280;32455;43.430;23.136;2022-11-14T14:00:09;99115.34;;;7.05;100.00
46722;BME280;32455;43.430;23.136;2022-11-14T14:09:12;99100.81;;;7.07;100.00
46722;BME280;32455;43.430;23.136;2022-11-14T14:15:19;99103.06;;;6.95;100.00
46722;BME280;32455;43.430;23.136;2022-11-14T14:18:16;99101.44;;;7.09;100.00
46722;BME280;32455;43.430;23.136;2022-11-14T14:31:11;99103.28;;;6.46;100.00
46722;BME280;32455;43.430;23.136;2022-11-14T14:33:59;99109.97;;;6.42;100.00
46722;BME280;32455;43.430;23.136;2022-11-14T14:36:53;99109.97;;;6.42;100.00
46722;BME280;32455;43.430;23.136;2022-11-14T14:39:38;99097.78;;;6.48;100.00
46722;BME280;32455;43.430;23.136;2022-11-14T14:42:25;99108.72;;;6.30;100.00
46722;BME280;32455;43.430;23.136;2022-11-14T14:45:16;99103.47;;;6.45;100.00
46722;BME280;32455;43.430;23.136;2022-11-14T14:48:13;99088.41;;;6.60;100.00
46722;BME280;32455;43.430;23.136;2022-11-14T14:50:59;99098.63;;;6.80;100.00
46722;BME280;32455;43.430;23.136;2022-11-14T14:53:51;99096.78;;;6.80;100.00
46722;BME280;32455;43.430;23.136;2022-11-14T14:56:38;99092.94;;;6.83;100.00
46722;BME280;32455;43.430;23.136;2022-11-14T14:59:24;99086.25;;;6.87;100.00
46722;BME280;32455;43.430;23.136;2022-11-14T15:02:24;99077.22;;;6.88;100.00
46722;BME280;32455;43.430;23.136;2022-11-14T15:05:10;99080.59;;;6.82;100.00
46722;BME280;32455;43.430;23.136;2022-11-14T15:08:05;99073.50;;;6.66;100.00
46722;BME280;32455;43.430;23.136;2022-11-14T15:11:00;99078.47;;;6.77;100.00
46722;BME280;32455;43.430;23.136;2022-11-14T15:13:51;99046.97;;;6.64;100.00
46722;BME280;32455;43.430;23.136;2022-11-14T15:16:37;99084.44;;;6.79;100.00
46722;BME280;32455;43.430;23.136;2022-11-14T15:19:25;99071.81;;;6.73;100.00
46722;BME280;32455;43.430;23.136;2022-11-14T15:25:18;99055.53;;;6.60;100.00
46722;BME280;32455;43.430;23.136;2022-11-14T15:28:18;99070.69;;;6.59;100.00
46722;BME280;32455;43.430;23.136;2022-11-14T15:31:05;99079.34;;;6.69;100.00
46722;BME280;32455;43.430;23.136;2022-11-14T15:34:04;99071.69;;;6.58;100.00
46722;BME280;32455;43.430;23.136;2022-11-14T15:40:18;99050.56;;;6.48;100.00
46722;BME280;32455;43.430;23.136;2022-11-14T15:49:24;99075.66;;;6.70;100.00
46722;BME280;32455;43.430;23.136;2022-11-14T15:52:37;99061.66;;;6.68;100.00
46722;BME280;32455;43.430;23.136;2022-11-14T15:55:23;99068.81;;;6.68;100.00
46722;BME280;32455;43.430;23.136;2022-11-14T15:58:09;99072.34;;;6.68;100.00
46722;BME280;32455;43.430;23.136;2022-11-14T16:00:55;99057.56;;;6.49;100.00
46722;BME280;32455;43.430;23.136;2022-11-14T16:03:44;99057.53;;;6.58;100.00
46722;BME280;32455;43.430;23.136;2022-11-14T16:06:32;99061.94;;;6.73;100.00
46722;BME280;32455;43.430;23.136;2022-11-14T16:09:19;99050.09;;;6.68;100.00
46722;BME280;32455;43.430;23.136;2022-11-14T16:12:05;99074.44;;;6.81;100.00
46722;BME280;32455;43.430;23.136;2022-11-14T16:14:51;99074.78;;;6.78;100.00
46722;BME280;32455;43.430;23.136;2022-11-14T16:17:39;99072.63;;;6.73;100.00
46722;BME280;32455;43.430;23.136;2022-11-14T16:20:26;99054.28;;;6.70;100.00
46722;BME280;32455;43.430;23.136;2022-11-14T16:23:12;99077.44;;;6.78;100.00
46722;BME280;32455;43.430;23.136;2022-11-14T16:25:58;99062.19;;;6.64;100.00
46722;BME280;32455;43.430;23.136;2022-11-14T16:28:43;99070.31;;;6.70;100.00
46722;BME280;32455;43.430;23.136;2022-11-14T16:31:29;99069.81;;;6.67;100.00
46722;BME280;32455;43.430;23.136;2022-11-14T16:34:25;99073.53;;;6.58;100.00
46722;BME280;32455;43.430;23.136;2022-11-14T16:37:12;99046.84;;;6.58;100.00
46722;BME280;32455;43.430;23.136;2022-11-14T16:39:58;99067.59;;;6.78;100.00
46722;BME280;32455;43.430;23.136;2022-11-14T16:42:44;99067.28;;;6.73;100.00
46722;BME280;32455;43.430;23.136;2022-11-14T16:45:30;99074.81;;;6.70;100.00